KESN/ESN METAR and TAF weather

Enter ICAO airport designator
Station Type Date Time Source
KESN METAR 2022/06/30 13:45 UTC NOAA

KESN 301345Z 00000KT 10SM CLR 29/26 A3026


Station Type Date Time Source
KESN Decoded METAR 2022/06/30 13:45 UTC NOAA

Easton / Newman Field, MD, United States (KESN) 38-48N 076-04W
Jun 30, 2022 - 09:45 AM EDT / 2022.06.30 1345 UTC
Wind: Calm:0
Visibility: 10 mile(s):0
Sky conditions: clear
Temperature: 84 F (29 C)
Dew Point: 78 F (26 C)
Relative Humidity: 83%
Pressure (altimeter): 30.26 in. Hg (1024 hPa)
ob: KESN 301345Z 00000KT 10SM CLR 29/26 A3026
cycle: 14

Station Type Date Time Source
KESN TAF UTC NOAA

Error!

Example: see airport list